sensor_id;sensor_type;location;lat;lon;timestamp;P1;durP1;ratioP1;P2;durP2;ratioP2
12871;SDS011;6504;53.766;9.626;2022-11-13T00:05:27;11.80;;;10.57;;
12871;SDS011;6504;53.766;9.626;2022-11-13T00:07:54;12.90;;;11.67;;
12871;SDS011;6504;53.766;9.626;2022-11-13T00:10:24;13.20;;;11.80;;
12871;SDS011;6504;53.766;9.626;2022-11-13T00:12:52;11.70;;;10.53;;
12871;SDS011;6504;53.766;9.626;2022-11-13T00:15:21;13.33;;;11.93;;
12871;SDS011;6504;53.766;9.626;2022-11-13T00:17:49;12.40;;;11.20;;
12871;SDS011;6504;53.766;9.626;2022-11-13T00:20:17;12.60;;;11.30;;
12871;SDS011;6504;53.766;9.626;2022-11-13T00:22:45;12.30;;;11.20;;
12871;SDS011;6504;53.766;9.626;2022-11-13T00:25:13;12.40;;;11.30;;
12871;SDS011;6504;53.766;9.626;2022-11-13T00:27:42;12.57;;;11.33;;
12871;SDS011;6504;53.766;9.626;2022-11-13T00:30:10;13.53;;;12.10;;
12871;SDS011;6504;53.766;9.626;2022-11-13T00:32:44;14.00;;;12.57;;
12871;SDS011;6504;53.766;9.626;2022-11-13T00:35:12;14.20;;;12.80;;
12871;SDS011;6504;53.766;9.626;2022-11-13T00:37:40;13.73;;;12.33;;
12871;SDS011;6504;53.766;9.626;2022-11-13T00:40:09;14.17;;;12.50;;
12871;SDS011;6504;53.766;9.626;2022-11-13T00:42:37;16.33;;;13.73;;
12871;SDS011;6504;53.766;9.626;2022-11-13T00:45:07;14.57;;;13.17;;
12871;SDS011;6504;53.766;9.626;2022-11-13T00:47:35;14.27;;;12.90;;
12871;SDS011;6504;53.766;9.626;2022-11-13T00:50:03;15.43;;;13.93;;
12871;SDS011;6504;53.766;9.626;2022-11-13T00:52:32;16.63;;;14.93;;
12871;SDS011;6504;53.766;9.626;2022-11-13T00:55:00;16.37;;;14.67;;
12871;SDS011;6504;53.766;9.626;2022-11-13T00:57:28;16.60;;;14.87;;
12871;SDS011;6504;53.766;9.626;2022-11-13T00:59:56;16.37;;;14.40;;
12871;SDS011;6504;53.766;9.626;2022-11-13T01:02:25;15.80;;;14.20;;
12871;SDS011;6504;53.766;9.626;2022-11-13T01:04:53;15.63;;;14.03;;
12871;SDS011;6504;53.766;9.626;2022-11-13T01:07:21;13.87;;;12.50;;
12871;SDS011;6504;53.766;9.626;2022-11-13T01:09:49;16.37;;;12.97;;
12871;SDS011;6504;53.766;9.626;2022-11-13T01:12:17;13.80;;;12.50;;
12871;SDS011;6504;53.766;9.626;2022-11-13T01:14:45;13.90;;;12.47;;
12871;SDS011;6504;53.766;9.626;2022-11-13T01:17:14;13.10;;;11.80;;
12871;SDS011;6504;53.766;9.626;2022-11-13T01:19:43;13.93;;;12.60;;
12871;SDS011;6504;53.766;9.626;2022-11-13T01:22:11;13.80;;;12.50;;
12871;SDS011;6504;53.766;9.626;2022-11-13T01:24:39;14.37;;;13.07;;
12871;SDS011;6504;53.766;9.626;2022-11-13T01:27:07;15.97;;;13.67;;
12871;SDS011;6504;53.766;9.626;2022-11-13T01:29:36;15.13;;;13.63;;
12871;SDS011;6504;53.766;9.626;2022-11-13T01:32:04;15.03;;;13.53;;
12871;SDS011;6504;53.766;9.626;2022-11-13T01:34:32;14.77;;;13.47;;
12871;SDS011;6504;53.766;9.626;2022-11-13T01:37:02;14.53;;;13.17;;
12871;SDS011;6504;53.766;9.626;2022-11-13T01:39:30;15.57;;;14.07;;
12871;SDS011;6504;53.766;9.626;2022-11-13T01:41:59;14.77;;;13.30;;
12871;SDS011;6504;53.766;9.626;2022-11-13T01:47:13;15.20;;;13.70;;
12871;SDS011;6504;53.766;9.626;2022-11-13T01:49:43;17.00;;;15.30;;
12871;SDS011;6504;53.766;9.626;2022-11-13T01:52:14;16.00;;;14.30;;
12871;SDS011;6504;53.766;9.626;2022-11-13T01:54:47;15.10;;;13.60;;
12871;SDS011;6504;53.766;9.626;2022-11-13T01:57:17;16.20;;;14.30;;
12871;SDS011;6504;53.766;9.626;2022-11-13T01:59:47;17.33;;;15.13;;
12871;SDS011;6504;53.766;9.626;2022-11-13T02:02:17;17.40;;;15.53;;
12871;SDS011;6504;53.766;9.626;2022-11-13T02:04:45;17.23;;;15.53;;
12871;SDS011;6504;53.766;9.626;2022-11-13T02:07:16;16.37;;;14.63;;
12871;SDS011;6504;53.766;9.626;2022-11-13T02:09:46;16.87;;;15.13;;
12871;SDS011;6504;53.766;9.626;2022-11-13T02:12:16;16.17;;;14.47;;
12871;SDS011;6504;53.766;9.626;2022-11-13T02:14:49;16.43;;;14.07;;
12871;SDS011;6504;53.766;9.626;2022-11-13T02:17:20;16.63;;;15.00;;
12871;SDS011;6504;53.766;9.626;2022-11-13T02:19:52;16.00;;;14.40;;
12871;SDS011;6504;53.766;9.626;2022-11-13T02:22:27;16.13;;;14.47;;
12871;SDS011;6504;53.766;9.626;2022-11-13T02:25:03;15.90;;;14.13;;
12871;SDS011;6504;53.766;9.626;2022-11-13T02:27:33;14.70;;;13.30;;
12871;SDS011;6504;53.766;9.626;2022-11-13T02:30:12;15.37;;;13.77;;
12871;SDS011;6504;53.766;9.626;2022-11-13T02:32:45;13.67;;;12.27;;
12871;SDS011;6504;53.766;9.626;2022-11-13T02:35:16;15.13;;;13.53;;
12871;SDS011;6504;53.766;9.626;2022-11-13T02:37:47;15.33;;;13.47;;
12871;SDS011;6504;53.766;9.626;2022-11-13T02:40:17;15.80;;;14.30;;
12871;SDS011;6504;53.766;9.626;2022-11-13T02:42:45;16.97;;;15.20;;
12871;SDS011;6504;53.766;9.626;2022-11-13T02:45:13;14.97;;;13.53;;
12871;SDS011;6504;53.766;9.626;2022-11-13T02:47:41;15.60;;;14.10;;
12871;SDS011;6504;53.766;9.626;2022-11-13T02:50:10;14.87;;;13.40;;
12871;SDS011;6504;53.766;9.626;2022-11-13T02:52:38;15.60;;;14.10;;
12871;SDS011;6504;53.766;9.626;2022-11-13T02:55:07;15.07;;;13.77;;
12871;SDS011;6504;53.766;9.626;2022-11-13T02:57:37;15.80;;;14.17;;
12871;SDS011;6504;53.766;9.626;2022-11-13T03:00:05;14.97;;;13.53;;
12871;SDS011;6504;53.766;9.626;2022-11-13T03:02:39;15.07;;;13.67;;
12871;SDS011;6504;53.766;9.626;2022-11-13T03:05:08;14.97;;;13.57;;
12871;SDS011;6504;53.766;9.626;2022-11-13T03:07:38;16.07;;;14.47;;
12871;SDS011;6504;53.766;9.626;2022-11-13T03:10:07;15.90;;;14.37;;
12871;SDS011;6504;53.766;9.626;2022-11-13T03:12:37;15.13;;;13.63;;
12871;SDS011;6504;53.766;9.626;2022-11-13T03:15:06;15.60;;;14.10;;
12871;SDS011;6504;53.766;9.626;2022-11-13T03:17:35;14.33;;;12.90;;
12871;SDS011;6504;53.766;9.626;2022-11-13T03:20:03;14.70;;;13.17;;
12871;SDS011;6504;53.766;9.626;2022-11-13T03:22:32;16.10;;;14.50;;
12871;SDS011;6504;53.766;9.626;2022-11-13T03:25:00;15.40;;;13.87;;
12871;SDS011;6504;53.766;9.626;2022-11-13T03:27:37;15.90;;;14.40;;
12871;SDS011;6504;53.766;9.626;2022-11-13T03:30:05;16.60;;;14.90;;
12871;SDS011;6504;53.766;9.626;2022-11-13T03:32:34;16.00;;;14.40;;
12871;SDS011;6504;53.766;9.626;2022-11-13T03:35:02;15.73;;;14.13;;
12871;SDS011;6504;53.766;9.626;2022-11-13T03:37:31;16.00;;;14.30;;
12871;SDS011;6504;53.766;9.626;2022-11-13T03:39:59;16.67;;;14.97;;
12871;SDS011;6504;53.766;9.626;2022-11-13T03:42:27;16.60;;;14.90;;
12871;SDS011;6504;53.766;9.626;2022-11-13T03:44:56;17.80;;;16.00;;
12871;SDS011;6504;53.766;9.626;2022-11-13T03:47:24;17.40;;;15.67;;
12871;SDS011;6504;53.766;9.626;2022-11-13T03:49:52;17.10;;;15.37;;
12871;SDS011;6504;53.766;9.626;2022-11-13T03:52:20;17.37;;;15.63;;
12871;SDS011;6504;53.766;9.626;2022-11-13T03:54:48;15.90;;;14.30;;
12871;SDS011;6504;53.766;9.626;2022-11-13T03:57:16;17.47;;;15.23;;
12871;SDS011;6504;53.766;9.626;2022-11-13T03:59:44;17.50;;;15.77;;
12871;SDS011;6504;53.766;9.626;2022-11-13T04:02:13;17.83;;;16.03;;
12871;SDS011;6504;53.766;9.626;2022-11-13T04:04:41;19.77;;;16.40;;
12871;SDS011;6504;53.766;9.626;2022-11-13T04:07:10;21.13;;;16.90;;
12871;SDS011;6504;53.766;9.626;2022-11-13T04:09:38;18.00;;;16.17;;
12871;SDS011;6504;53.766;9.626;2022-11-13T04:12:06;18.37;;;16.43;;
12871;SDS011;6504;53.766;9.626;2022-11-13T04:14:34;18.00;;;15.90;;
12871;SDS011;6504;53.766;9.626;2022-11-13T04:17:02;18.50;;;16.37;;
12871;SDS011;6504;53.766;9.626;2022-11-13T04:19:31;18.30;;;16.40;;
12871;SDS011;6504;53.766;9.626;2022-11-13T04:21:59;19.27;;;17.03;;
12871;SDS011;6504;53.766;9.626;2022-11-13T04:24:27;18.07;;;15.80;;
12871;SDS011;6504;53.766;9.626;2022-11-13T04:26:55;18.83;;;16.27;;
12871;SDS011;6504;53.766;9.626;2022-11-13T04:29:24;19.37;;;17.23;;
12871;SDS011;6504;53.766;9.626;2022-11-13T04:31:52;18.80;;;16.70;;
12871;SDS011;6504;53.766;9.626;2022-11-13T04:34:20;19.53;;;16.20;;
12871;SDS011;6504;53.766;9.626;2022-11-13T04:36:50;18.13;;;16.23;;
12871;SDS011;6504;53.766;9.626;2022-11-13T04:39:18;17.77;;;15.87;;
12871;SDS011;6504;53.766;9.626;2022-11-13T04:41:46;19.10;;;17.10;;
12871;SDS011;6504;53.766;9.626;2022-11-13T04:44:31;19.63;;;17.00;;
12871;SDS011;6504;53.766;9.626;2022-11-13T04:46:59;19.57;;;17.33;;
12871;SDS011;6504;53.766;9.626;2022-11-13T04:49:27;18.73;;;16.73;;
12871;SDS011;6504;53.766;9.626;2022-11-13T04:51:56;18.57;;;16.57;;
12871;SDS011;6504;53.766;9.626;2022-11-13T04:54:24;20.57;;;16.63;;
12871;SDS011;6504;53.766;9.626;2022-11-13T04:56:54;19.70;;;16.57;;
12871;SDS011;6504;53.766;9.626;2022-11-13T04:59:22;21.40;;;18.03;;
12871;SDS011;6504;53.766;9.626;2022-11-13T05:01:50;19.47;;;17.43;;
12871;SDS011;6504;53.766;9.626;2022-11-13T05:04:20;19.03;;;17.10;;
12871;SDS011;6504;53.766;9.626;2022-11-13T05:06:49;20.47;;;18.13;;
12871;SDS011;6504;53.766;9.626;2022-11-13T05:09:18;21.20;;;17.47;;
12871;SDS011;6504;53.766;9.626;2022-11-13T05:11:46;19.27;;;17.27;;
12871;SDS011;6504;53.766;9.626;2022-11-13T05:14:14;19.23;;;16.70;;
12871;SDS011;6504;53.766;9.626;2022-11-13T05:16:42;21.43;;;17.53;;
12871;SDS011;6504;53.766;9.626;2022-11-13T05:19:11;19.77;;;17.30;;
12871;SDS011;6504;53.766;9.626;2022-11-13T05:21:39;19.00;;;17.00;;
12871;SDS011;6504;53.766;9.626;2022-11-13T05:24:08;19.47;;;17.33;;
12871;SDS011;6504;53.766;9.626;2022-11-13T05:26:38;18.80;;;16.80;;
12871;SDS011;6504;53.766;9.626;2022-11-13T05:29:07;18.47;;;16.27;;
12871;SDS011;6504;53.766;9.626;2022-11-13T05:31:35;19.30;;;17.27;;
12871;SDS011;6504;53.766;9.626;2022-11-13T05:34:03;19.67;;;17.60;;
12871;SDS011;6504;53.766;9.626;2022-11-13T05:36:31;20.77;;;17.60;;
12871;SDS011;6504;53.766;9.626;2022-11-13T05:39:00;19.90;;;17.37;;
12871;SDS011;6504;53.766;9.626;2022-11-13T05:41:28;18.93;;;16.93;;
12871;SDS011;6504;53.766;9.626;2022-11-13T05:43:58;18.07;;;16.07;;
12871;SDS011;6504;53.766;9.626;2022-11-13T05:46:26;19.40;;;17.50;;
12871;SDS011;6504;53.766;9.626;2022-11-13T05:48:56;18.70;;;16.80;;
12871;SDS011;6504;53.766;9.626;2022-11-13T05:51:25;19.77;;;16.90;;
12871;SDS011;6504;53.766;9.626;2022-11-13T05:53:55;17.67;;;15.97;;
12871;SDS011;6504;53.766;9.626;2022-11-13T05:56:23;18.80;;;16.90;;
12871;SDS011;6504;53.766;9.626;2022-11-13T05:58:53;18.97;;;16.97;;
12871;SDS011;6504;53.766;9.626;2022-11-13T06:01:24;19.87;;;16.97;;
12871;SDS011;6504;53.766;9.626;2022-11-13T06:03:53;18.83;;;16.83;;
12871;SDS011;6504;53.766;9.626;2022-11-13T06:06:23;19.17;;;17.17;;
12871;SDS011;6504;53.766;9.626;2022-11-13T06:08:53;21.63;;;17.20;;
12871;SDS011;6504;53.766;9.626;2022-11-13T06:11:23;17.27;;;15.47;;
12871;SDS011;6504;53.766;9.626;2022-11-13T06:13:52;18.33;;;16.30;;
12871;SDS011;6504;53.766;9.626;2022-11-13T06:16:22;18.43;;;15.87;;
12871;SDS011;6504;53.766;9.626;2022-11-13T06:18:53;17.83;;;15.37;;
12871;SDS011;6504;53.766;9.626;2022-11-13T06:21:22;19.30;;;16.83;;
12871;SDS011;6504;53.766;9.626;2022-11-13T06:23:52;18.90;;;16.33;;
12871;SDS011;6504;53.766;9.626;2022-11-13T06:26:21;18.80;;;16.73;;
12871;SDS011;6504;53.766;9.626;2022-11-13T06:28:51;17.83;;;16.03;;
12871;SDS011;6504;53.766;9.626;2022-11-13T06:31:20;18.83;;;16.83;;
12871;SDS011;6504;53.766;9.626;2022-11-13T06:33:50;20.27;;;17.27;;
12871;SDS011;6504;53.766;9.626;2022-11-13T06:36:19;18.70;;;16.67;;
12871;SDS011;6504;53.766;9.626;2022-11-13T06:38:48;20.77;;;17.50;;
12871;SDS011;6504;53.766;9.626;2022-11-13T06:41:18;22.67;;;17.07;;
12871;SDS011;6504;53.766;9.626;2022-11-13T06:43:47;18.50;;;16.50;;
12871;SDS011;6504;53.766;9.626;2022-11-13T06:46:16;18.13;;;16.23;;
12871;SDS011;6504;53.766;9.626;2022-11-13T06:48:46;19.17;;;17.03;;
12871;SDS011;6504;53.766;9.626;2022-11-13T06:51:16;21.63;;;17.70;;
12871;SDS011;6504;53.766;9.626;2022-11-13T06:53:46;18.33;;;16.43;;
12871;SDS011;6504;53.766;9.626;2022-11-13T06:56:14;19.93;;;16.57;;
12871;SDS011;6504;53.766;9.626;2022-11-13T06:58:43;19.90;;;17.37;;
12871;SDS011;6504;53.766;9.626;2022-11-13T07:01:12;20.33;;;17.63;;
12871;SDS011;6504;53.766;9.626;2022-11-13T07:03:42;20.63;;;18.40;;
12871;SDS011;6504;53.766;9.626;2022-11-13T07:06:11;20.87;;;18.53;;
12871;SDS011;6504;53.766;9.626;2022-11-13T07:08:42;20.37;;;18.13;;
12871;SDS011;6504;53.766;9.626;2022-11-13T07:11:11;22.40;;;18.83;;
12871;SDS011;6504;53.766;9.626;2022-11-13T07:13:41;24.30;;;20.80;;
12871;SDS011;6504;53.766;9.626;2022-11-13T07:16:10;22.87;;;19.40;;
12871;SDS011;6504;53.766;9.626;2022-11-13T07:18:48;24.33;;;19.83;;
12871;SDS011;6504;53.766;9.626;2022-11-13T07:21:16;23.07;;;19.73;;
12871;SDS011;6504;53.766;9.626;2022-11-13T07:23:47;22.53;;;19.90;;
12871;SDS011;6504;53.766;9.626;2022-11-13T07:26:16;26.80;;;20.90;;
12871;SDS011;6504;53.766;9.626;2022-11-13T07:28:45;25.77;;;21.23;;
12871;SDS011;6504;53.766;9.626;2022-11-13T07:31:14;22.70;;;19.90;;
12871;SDS011;6504;53.766;9.626;2022-11-13T07:33:43;28.57;;;22.43;;
12871;SDS011;6504;53.766;9.626;2022-11-13T07:36:11;26.47;;;21.17;;
12871;SDS011;6504;53.766;9.626;2022-11-13T07:38:39;29.13;;;23.83;;
12871;SDS011;6504;53.766;9.626;2022-11-13T07:41:08;27.83;;;21.87;;
12871;SDS011;6504;53.766;9.626;2022-11-13T07:43:36;27.17;;;22.57;;
12871;SDS011;6504;53.766;9.626;2022-11-13T07:46:05;28.20;;;22.97;;
12871;SDS011;6504;53.766;9.626;2022-11-13T07:48:33;27.53;;;22.47;;
12871;SDS011;6504;53.766;9.626;2022-11-13T07:51:01;26.77;;;23.23;;
12871;SDS011;6504;53.766;9.626;2022-11-13T07:53:29;29.93;;;23.47;;
12871;SDS011;6504;53.766;9.626;2022-11-13T07:55:59;32.13;;;23.93;;
12871;SDS011;6504;53.766;9.626;2022-11-13T07:58:29;28.30;;;24.13;;
12871;SDS011;6504;53.766;9.626;2022-11-13T08:01:00;28.00;;;23.57;;
12871;SDS011;6504;53.766;9.626;2022-11-13T08:03:30;30.97;;;23.97;;
12871;SDS011;6504;53.766;9.626;2022-11-13T08:05:59;33.50;;;25.77;;
12871;SDS011;6504;53.766;9.626;2022-11-13T08:08:28;32.30;;;24.03;;
12871;SDS011;6504;53.766;9.626;2022-11-13T08:10:56;30.93;;;24.00;;
12871;SDS011;6504;53.766;9.626;2022-11-13T08:13:24;30.30;;;23.73;;
12871;SDS011;6504;53.766;9.626;2022-11-13T08:15:57;29.07;;;23.60;;
12871;SDS011;6504;53.766;9.626;2022-11-13T08:18:25;27.17;;;23.80;;
12871;SDS011;6504;53.766;9.626;2022-11-13T08:20:54;29.67;;;23.47;;
12871;SDS011;6504;53.766;9.626;2022-11-13T08:23:22;33.37;;;24.53;;
12871;SDS011;6504;53.766;9.626;2022-11-13T08:25:50;32.07;;;25.10;;
12871;SDS011;6504;53.766;9.626;2022-11-13T08:28:18;30.53;;;24.77;;
12871;SDS011;6504;53.766;9.626;2022-11-13T08:30:46;30.20;;;24.50;;
12871;SDS011;6504;53.766;9.626;2022-11-13T08:33:16;29.03;;;23.20;;
12871;SDS011;6504;53.766;9.626;2022-11-13T08:35:50;28.67;;;24.17;;
12871;SDS011;6504;53.766;9.626;2022-11-13T08:38:19;30.17;;;24.13;;
12871;SDS011;6504;53.766;9.626;2022-11-13T08:40:47;28.20;;;23.47;;
12871;SDS011;6504;53.766;9.626;2022-11-13T08:43:16;32.37;;;23.50;;
12871;SDS011;6504;53.766;9.626;2022-11-13T08:45:44;30.27;;;23.37;;
12871;SDS011;6504;53.766;9.626;2022-11-13T08:48:13;29.57;;;23.10;;
12871;SDS011;6504;53.766;9.626;2022-11-13T08:50:42;28.90;;;23.83;;
12871;SDS011;6504;53.766;9.626;2022-11-13T08:53:10;28.20;;;23.63;;
12871;SDS011;6504;53.766;9.626;2022-11-13T08:55:38;28.23;;;23.67;;
12871;SDS011;6504;53.766;9.626;2022-11-13T08:58:07;32.07;;;24.67;;
12871;SDS011;6504;53.766;9.626;2022-11-13T09:00:35;30.00;;;24.57;;
12871;SDS011;6504;53.766;9.626;2022-11-13T09:03:04;31.03;;;24.27;;
12871;SDS011;6504;53.766;9.626;2022-11-13T09:05:32;32.30;;;24.80;;
12871;SDS011;6504;53.766;9.626;2022-11-13T09:08:01;30.97;;;23.97;;
12871;SDS011;6504;53.766;9.626;2022-11-13T09:10:31;29.53;;;25.07;;
12871;SDS011;6504;53.766;9.626;2022-11-13T09:13:01;34.10;;;25.53;;
12871;SDS011;6504;53.766;9.626;2022-11-13T09:15:31;33.97;;;27.33;;
12871;SDS011;6504;53.766;9.626;2022-11-13T09:18:00;35.80;;;27.87;;
12871;SDS011;6504;53.766;9.626;2022-11-13T09:20:30;38.07;;;28.67;;
12871;SDS011;6504;53.766;9.626;2022-11-13T09:22:59;41.60;;;29.03;;
12871;SDS011;6504;53.766;9.626;2022-11-13T09:25:32;38.73;;;28.53;;
12871;SDS011;6504;53.766;9.626;2022-11-13T09:28:03;41.03;;;28.90;;
12871;SDS011;6504;53.766;9.626;2022-11-13T09:30:32;43.17;;;30.00;;
12871;SDS011;6504;53.766;9.626;2022-11-13T09:33:00;43.10;;;29.83;;
12871;SDS011;6504;53.766;9.626;2022-11-13T09:35:29;43.47;;;30.53;;
12871;SDS011;6504;53.766;9.626;2022-11-13T09:38:02;44.23;;;30.33;;
12871;SDS011;6504;53.766;9.626;2022-11-13T09:40:38;46.87;;;30.00;;
12871;SDS011;6504;53.766;9.626;2022-11-13T09:43:13;38.73;;;28.67;;
12871;SDS011;6504;53.766;9.626;2022-11-13T09:45:51;46.83;;;30.50;;
12871;SDS011;6504;53.766;9.626;2022-11-13T09:48:24;40.97;;;29.60;;
12871;SDS011;6504;53.766;9.626;2022-11-13T09:50:58;44.37;;;30.10;;
12871;SDS011;6504;53.766;9.626;2022-11-13T09:53:32;49.77;;;31.83;;
12871;SDS011;6504;53.766;9.626;2022-11-13T09:56:04;46.33;;;31.07;;
12871;SDS011;6504;53.766;9.626;2022-11-13T09:58:46;44.23;;;30.63;;
12871;SDS011;6504;53.766;9.626;2022-11-13T10:01:20;43.87;;;29.57;;
12871;SDS011;6504;53.766;9.626;2022-11-13T10:03:52;46.47;;;30.17;;
12871;SDS011;6504;53.766;9.626;2022-11-13T10:06:31;46.83;;;31.10;;
12871;SDS011;6504;53.766;9.626;2022-11-13T10:09:11;46.20;;;29.77;;
12871;SDS011;6504;53.766;9.626;2022-11-13T10:11:49;46.50;;;31.60;;
12871;SDS011;6504;53.766;9.626;2022-11-13T10:14:22;47.20;;;30.87;;
12871;SDS011;6504;53.766;9.626;2022-11-13T10:16:56;45.50;;;30.77;;
12871;SDS011;6504;53.766;9.626;2022-11-13T10:19:29;45.23;;;29.43;;
12871;SDS011;6504;53.766;9.626;2022-11-13T10:22:03;43.23;;;29.20;;
12871;SDS011;6504;53.766;9.626;2022-11-13T10:25:01;39.87;;;26.93;;
12871;SDS011;6504;53.766;9.626;2022-11-13T10:27:38;45.63;;;28.90;;
12871;SDS011;6504;53.766;9.626;2022-11-13T10:30:11;43.40;;;27.87;;
12871;SDS011;6504;53.766;9.626;2022-11-13T10:32:42;39.97;;;27.93;;
12871;SDS011;6504;53.766;9.626;2022-11-13T10:38:14;44.90;;;28.73;;
12871;SDS011;6504;53.766;9.626;2022-11-13T10:40:47;39.70;;;28.33;;
12871;SDS011;6504;53.766;9.626;2022-11-13T10:43:16;38.40;;;27.27;;
12871;SDS011;6504;53.766;9.626;2022-11-13T10:45:53;37.07;;;27.87;;
12871;SDS011;6504;53.766;9.626;2022-11-13T10:48:25;37.87;;;28.07;;
12871;SDS011;6504;53.766;9.626;2022-11-13T10:50:56;36.97;;;28.90;;
12871;SDS011;6504;53.766;9.626;2022-11-13T10:53:26;42.63;;;27.40;;
12871;SDS011;6504;53.766;9.626;2022-11-13T10:56:01;35.37;;;26.93;;
12871;SDS011;6504;53.766;9.626;2022-11-13T10:58:38;37.73;;;27.50;;
12871;SDS011;6504;53.766;9.626;2022-11-13T11:01:12;34.27;;;26.37;;
12871;SDS011;6504;53.766;9.626;2022-11-13T11:03:47;33.43;;;25.60;;
12871;SDS011;6504;53.766;9.626;2022-11-13T11:06:15;33.63;;;25.17;;
12871;SDS011;6504;53.766;9.626;2022-11-13T11:08:43;36.13;;;27.37;;
12871;SDS011;6504;53.766;9.626;2022-11-13T11:11:14;32.40;;;25.63;;
12871;SDS011;6504;53.766;9.626;2022-11-13T11:14:07;37.53;;;26.33;;
12871;SDS011;6504;53.766;9.626;2022-11-13T11:16:44;30.50;;;23.63;;
12871;SDS011;6504;53.766;9.626;2022-11-13T11:19:15;27.90;;;23.37;;
12871;SDS011;6504;53.766;9.626;2022-11-13T11:21:44;28.93;;;23.23;;
12871;SDS011;6504;53.766;9.626;2022-11-13T11:24:17;31.77;;;23.70;;
12871;SDS011;6504;53.766;9.626;2022-11-13T11:26:52;30.53;;;23.23;;
12871;SDS011;6504;53.766;9.626;2022-11-13T11:29:27;25.10;;;21.33;;
12871;SDS011;6504;53.766;9.626;2022-11-13T11:32:00;28.07;;;23.43;;
12871;SDS011;6504;53.766;9.626;2022-11-13T11:34:34;28.80;;;23.13;;
12871;SDS011;6504;53.766;9.626;2022-11-13T11:37:11;26.70;;;23.40;;
12871;SDS011;6504;53.766;9.626;2022-11-13T11:39:41;29.77;;;23.23;;
12871;SDS011;6504;53.766;9.626;2022-11-13T11:42:18;29.47;;;23.73;;
12871;SDS011;6504;53.766;9.626;2022-11-13T11:44:56;28.30;;;23.03;;
12871;SDS011;6504;53.766;9.626;2022-11-13T11:47:31;28.43;;;23.60;;
12871;SDS011;6504;53.766;9.626;2022-11-13T11:50:00;27.77;;;22.97;;
12871;SDS011;6504;53.766;9.626;2022-11-13T11:52:31;28.93;;;22.97;;
12871;SDS011;6504;53.766;9.626;2022-11-13T11:55:16;30.70;;;22.90;;
12871;SDS011;6504;53.766;9.626;2022-11-13T11:58:01;27.53;;;22.70;;
12871;SDS011;6504;53.766;9.626;2022-11-13T12:00:38;24.53;;;20.57;;
12871;SDS011;6504;53.766;9.626;2022-11-13T12:03:26;26.07;;;20.80;;
12871;SDS011;6504;53.766;9.626;2022-11-13T12:06:06;26.80;;;21.63;;
12871;SDS011;6504;53.766;9.626;2022-11-13T12:08:40;26.33;;;21.33;;
12871;SDS011;6504;53.766;9.626;2022-11-13T12:11:16;32.23;;;21.93;;
12871;SDS011;6504;53.766;9.626;2022-11-13T12:13:57;26.50;;;20.63;;
12871;SDS011;6504;53.766;9.626;2022-11-13T12:16:30;24.13;;;20.33;;
12871;SDS011;6504;53.766;9.626;2022-11-13T12:19:09;24.13;;;19.33;;
12871;SDS011;6504;53.766;9.626;2022-11-13T12:21:50;24.03;;;19.23;;
12871;SDS011;6504;53.766;9.626;2022-11-13T12:24:35;25.03;;;20.67;;
12871;SDS011;6504;53.766;9.626;2022-11-13T12:27:17;24.93;;;20.53;;
12871;SDS011;6504;53.766;9.626;2022-11-13T12:29:56;25.60;;;19.60;;
12871;SDS011;6504;53.766;9.626;2022-11-13T12:32:40;28.70;;;20.30;;
12871;SDS011;6504;53.766;9.626;2022-11-13T12:35:20;26.50;;;21.33;;
12871;SDS011;6504;53.766;9.626;2022-11-13T12:37:50;29.80;;;21.77;;
12871;SDS011;6504;53.766;9.626;2022-11-13T12:40:25;27.70;;;22.43;;
12871;SDS011;6504;53.766;9.626;2022-11-13T12:43:00;24.27;;;19.17;;
12871;SDS011;6504;53.766;9.626;2022-11-13T12:45:48;23.37;;;19.70;;
12871;SDS011;6504;53.766;9.626;2022-11-13T12:48:20;24.53;;;19.53;;
12871;SDS011;6504;53.766;9.626;2022-11-13T12:50:56;25.03;;;20.47;;
12871;SDS011;6504;53.766;9.626;2022-11-13T12:53:26;25.83;;;19.77;;
12871;SDS011;6504;53.766;9.626;2022-11-13T12:55:57;24.30;;;18.77;;
12871;SDS011;6504;53.766;9.626;2022-11-13T12:58:26;23.23;;;18.83;;
12871;SDS011;6504;53.766;9.626;2022-11-13T13:00:59;25.27;;;18.80;;
12871;SDS011;6504;53.766;9.626;2022-11-13T13:03:51;21.57;;;17.83;;
12871;SDS011;6504;53.766;9.626;2022-11-13T13:06:50;20.77;;;16.77;;
12871;SDS011;6504;53.766;9.626;2022-11-13T13:09:32;22.40;;;16.90;;
12871;SDS011;6504;53.766;9.626;2022-11-13T13:12:11;25.03;;;17.47;;
12871;SDS011;6504;53.766;9.626;2022-11-13T13:14:50;22.60;;;17.90;;
12871;SDS011;6504;53.766;9.626;2022-11-13T13:17:27;22.03;;;17.03;;
12871;SDS011;6504;53.766;9.626;2022-11-13T13:19:56;20.03;;;16.03;;
12871;SDS011;6504;53.766;9.626;2022-11-13T13:22:27;19.20;;;15.73;;
12871;SDS011;6504;53.766;9.626;2022-11-13T13:25:00;20.23;;;16.60;;
12871;SDS011;6504;53.766;9.626;2022-11-13T13:27:32;18.63;;;15.70;;
12871;SDS011;6504;53.766;9.626;2022-11-13T13:30:15;20.20;;;16.33;;
12871;SDS011;6504;53.766;9.626;2022-11-13T13:32:50;21.67;;;15.97;;
12871;SDS011;6504;53.766;9.626;2022-11-13T13:35:26;18.53;;;15.73;;
12871;SDS011;6504;53.766;9.626;2022-11-13T13:38:00;18.30;;;15.33;;
12871;SDS011;6504;53.766;9.626;2022-11-13T13:40:34;17.83;;;15.60;;
12871;SDS011;6504;53.766;9.626;2022-11-13T13:43:10;17.30;;;15.33;;
12871;SDS011;6504;53.766;9.626;2022-11-13T13:45:49;17.73;;;15.37;;
12871;SDS011;6504;53.766;9.626;2022-11-13T13:48:25;19.43;;;15.37;;
12871;SDS011;6504;53.766;9.626;2022-11-13T13:50:56;19.97;;;15.33;;
12871;SDS011;6504;53.766;9.626;2022-11-13T13:53:28;16.60;;;14.53;;
12871;SDS011;6504;53.766;9.626;2022-11-13T13:56:00;18.80;;;15.33;;
12871;SDS011;6504;53.766;9.626;2022-11-13T13:58:32;17.03;;;14.27;;
12871;SDS011;6504;53.766;9.626;2022-11-13T14:01:03;17.23;;;14.53;;
12871;SDS011;6504;53.766;9.626;2022-11-13T14:03:49;14.67;;;13.13;;
12871;SDS011;6504;53.766;9.626;2022-11-13T14:06:30;15.07;;;13.47;;
12871;SDS011;6504;53.766;9.626;2022-11-13T14:09:08;20.63;;;14.60;;
12871;SDS011;6504;53.766;9.626;2022-11-13T14:11:37;15.57;;;13.93;;
12871;SDS011;6504;53.766;9.626;2022-11-13T14:14:05;15.23;;;13.67;;
12871;SDS011;6504;53.766;9.626;2022-11-13T14:16:44;16.07;;;14.03;;
12871;SDS011;6504;53.766;9.626;2022-11-13T14:19:14;17.17;;;14.07;;
12871;SDS011;6504;53.766;9.626;2022-11-13T14:21:43;16.57;;;13.90;;
12871;SDS011;6504;53.766;9.626;2022-11-13T14:24:14;16.20;;;13.67;;
12871;SDS011;6504;53.766;9.626;2022-11-13T14:26:47;15.07;;;13.53;;
12871;SDS011;6504;53.766;9.626;2022-11-13T14:29:20;15.67;;;13.67;;
12871;SDS011;6504;53.766;9.626;2022-11-13T14:31:52;13.97;;;12.47;;
12871;SDS011;6504;53.766;9.626;2022-11-13T14:34:22;16.70;;;14.97;;
12871;SDS011;6504;53.766;9.626;2022-11-13T14:36:50;16.20;;;14.50;;
12871;SDS011;6504;53.766;9.626;2022-11-13T14:39:21;17.97;;;14.30;;
12871;SDS011;6504;53.766;9.626;2022-11-13T14:41:52;17.90;;;14.40;;
12871;SDS011;6504;53.766;9.626;2022-11-13T14:44:26;15.63;;;13.87;;
12871;SDS011;6504;53.766;9.626;2022-11-13T14:46:58;16.30;;;14.60;;
12871;SDS011;6504;53.766;9.626;2022-11-13T14:49:30;18.40;;;15.17;;
12871;SDS011;6504;53.766;9.626;2022-11-13T14:52:00;15.53;;;13.90;;
12871;SDS011;6504;53.766;9.626;2022-11-13T14:54:32;15.83;;;14.23;;
12871;SDS011;6504;53.766;9.626;2022-11-13T14:57:21;15.97;;;14.30;;
12871;SDS011;6504;53.766;9.626;2022-11-13T14:59:49;15.17;;;13.67;;
12871;SDS011;6504;53.766;9.626;2022-11-13T15:02:17;17.50;;;15.63;;
12871;SDS011;6504;53.766;9.626;2022-11-13T15:04:47;17.87;;;15.93;;
12871;SDS011;6504;53.766;9.626;2022-11-13T15:07:18;16.90;;;15.13;;